Time;durP1;ratioP1;P1;durP2;ratioP2;P2;SDS_P1;SDS_P2;PMS_P1;PMS_P2;Temp;Humidity;BMP_temperature;BMP_pressure;BME280_temperature;BME280_humidity;BME280_pressure;Samples;Min_cycle;Max_cycle;Signal;HPM_P1;HPM_P2
2022/02/08 00:02:13;;;;;;;11.77;3.35;;;3.40;99.90;;;;;;5068291;28;20032;-58
2022/02/08 00:04:39;;;;;;;16.70;3.85;;;3.50;99.90;;;;;;5068334;28;20229;-57
2022/02/08 00:07:07;;;;;;;16.52;5.10;;;3.50;99.90;;;;;;5068242;28;20024;-58
2022/02/08 00:09:33;;;;;;;16.25;3.97;;;3.50;99.90;;;;;;5067710;28;20103;-58
2022/02/08 00:11:59;;;;;;;16.92;3.90;;;3.60;99.90;;;;;;5068312;28;20204;-58
2022/02/08 00:14:25;;;;;;;17.27;4.63;;;3.60;99.90;;;;;;5065005;28;20402;-58
2022/02/08 00:16:51;;;;;;;21.85;4.28;;;3.70;99.90;;;;;;5058699;28;20035;-58
2022/02/08 00:19:17;;;;;;;18.77;4.50;;;3.80;99.90;;;;;;5066102;28;20113;-58
2022/02/08 00:21:43;;;;;;;16.00;4.88;;;3.80;99.90;;;;;;5068098;28;20549;-58
2022/02/08 00:24:08;;;;;;;19.77;4.90;;;3.80;99.90;;;;;;5068057;28;20247;-58
2022/02/08 00:26:34;;;;;;;21.10;5.35;;;3.80;99.90;;;;;;5068458;28;20035;-57
2022/02/08 00:28:59;;;;;;;26.38;4.75;;;3.80;99.90;;;;;;5071294;28;20519;-57
2022/02/08 00:31:25;;;;;;;14.43;5.45;;;3.80;99.90;;;;;;5071713;28;20540;-57
2022/02/08 00:33:51;;;;;;;19.23;5.28;;;3.80;99.90;;;;;;5071704;28;20025;-57
2022/02/08 00:36:16;;;;;;;14.50;5.00;;;3.90;99.90;;;;;;5071973;28;20070;-58
2022/02/08 00:38:42;;;;;;;16.08;5.00;;;3.90;99.90;;;;;;5071222;28;20078;-58
2022/02/08 00:41:08;;;;;;;26.75;6.22;;;3.90;99.90;;;;;;5071847;28;20032;-58
2022/02/08 00:43:47;;;;;;;32.30;5.03;;;3.90;99.90;;;;;;5069189;28;20017;-57
2022/02/08 00:46:18;;;;;;;20.67;5.13;;;3.90;99.90;;;;;;5061608;28;20028;-59
2022/02/08 00:48:54;;;;;;;19.35;5.10;;;3.90;99.90;;;;;;5070995;28;20197;-58
2022/02/08 00:51:21;;;;;;;26.98;4.90;;;3.90;99.90;;;;;;5071472;28;20035;-58
2022/02/08 00:53:47;;;;;;;15.90;5.00;;;3.90;99.90;;;;;;5071390;28;20028;-60
2022/02/08 00:56:12;;;;;;;23.70;5.30;;;3.90;99.90;;;;;;5071817;28;20355;-59
2022/02/08 00:58:38;;;;;;;22.08;4.43;;;4.00;99.90;;;;;;5070512;28;20056;-59
2022/02/08 01:01:03;;;;;;;14.02;4.15;;;4.00;99.90;;;;;;5070915;28;20025;-58
2022/02/08 01:03:29;;;;;;;12.82;4.22;;;4.00;99.90;;;;;;5071202;28;20047;-59
2022/02/08 01:06:04;;;;;;;13.23;4.38;;;4.00;99.90;;;;;;5071171;28;20171;-59
2022/02/08 01:08:33;;;;;;;12.68;4.45;;;4.00;99.90;;;;;;5070401;28;20045;-59
2022/02/08 01:10:59;;;;;;;12.35;3.58;;;3.90;99.90;;;;;;5071096;28;20448;-59
2022/02/08 01:13:25;;;;;;;14.25;3.95;;;3.90;99.90;;;;;;5069558;28;20047;-59
2022/02/08 01:15:51;;;;;;;11.02;3.85;;;4.00;99.90;;;;;;5057372;28;20486;-59
2022/02/08 01:18:17;;;;;;;18.08;3.75;;;4.00;99.90;;;;;;5070014;28;20478;-59
2022/02/08 01:20:43;;;;;;;15.35;3.38;;;4.00;99.90;;;;;;5070772;28;20587;-59
2022/02/08 01:23:10;;;;;;;10.00;3.13;;;4.00;99.90;;;;;;5069538;28;20104;-59
2022/02/08 01:25:51;;;;;;;10.80;2.78;;;4.00;99.90;;;;;;5070719;28;20021;-59
2022/02/08 01:31:04;;;;;;;13.82;3.22;;;4.10;99.90;;;;;;5070110;28;20039;-58
2022/02/08 01:37:06;;;;;;;7.75;2.47;;;4.20;99.90;;;;;;5070780;28;20028;-58
2022/02/08 01:40:02;;;;;;;8.95;3.20;;;4.20;99.90;;;;;;5068839;28;20410;-59
2022/02/08 01:46:12;;;;;;;8.02;3.13;;;4.20;99.90;;;;;;5057264;28;20027;-58
2022/02/08 01:49:00;;;;;;;7.05;2.28;;;4.30;99.90;;;;;;5029770;28;20487;-59
2022/02/08 01:51:25;;;;;;;15.32;2.55;;;4.40;99.90;;;;;;5030639;28;20486;-59
2022/02/08 01:53:51;;;;;;;9.77;2.75;;;4.40;99.90;;;;;;5030254;28;20045;-58
2022/02/08 01:56:17;;;;;;;16.65;2.97;;;4.30;99.90;;;;;;5030343;28;20033;-58
2022/02/08 01:58:42;;;;;;;9.70;2.45;;;4.30;99.90;;;;;;5029508;28;20068;-59
2022/02/08 02:01:08;;;;;;;20.05;2.47;;;4.40;99.90;;;;;;5030254;28;20292;-60
2022/02/08 02:03:38;;;;;;;12.40;3.45;;;4.40;99.90;;;;;;5030083;28;20052;-58
2022/02/08 02:06:03;;;;;;;10.52;2.35;;;4.40;99.90;;;;;;5030290;28;20022;-58
2022/02/08 02:08:29;;;;;;;9.95;2.42;;;4.50;99.90;;;;;;5029358;28;20542;-58
2022/02/08 02:10:54;;;;;;;11.90;3.42;;;4.50;99.90;;;;;;5028885;28;20483;-58
2022/02/08 02:15:58;;;;;;;11.70;3.38;;;4.60;99.90;;;;;;5063862;28;20085;-59
2022/02/08 02:18:24;;;;;;;10.63;3.17;;;4.60;99.90;;;;;;5049553;28;20025;-57
2022/02/08 02:20:49;;;;;;;14.77;3.22;;;4.70;99.90;;;;;;5048479;28;20025;-58
2022/02/08 02:23:15;;;;;;;13.05;3.22;;;4.70;99.90;;;;;;5049747;28;20286;-59
2022/02/08 02:25:40;;;;;;;12.80;3.35;;;4.70;99.90;;;;;;5049899;28;20029;-57
2022/02/08 02:28:06;;;;;;;13.57;3.22;;;4.60;99.90;;;;;;5049008;28;20021;-58
2022/02/08 02:30:33;;;;;;;11.23;3.22;;;4.60;99.90;;;;;;5049453;28;20112;-57
2022/02/08 02:33:01;;;;;;;14.25;4.20;;;4.60;99.90;;;;;;5049475;28;20025;-58
2022/02/08 02:35:28;;;;;;;15.25;4.43;;;4.60;99.90;;;;;;5048195;28;20453;-59
2022/02/08 02:37:55;;;;;;;13.07;3.85;;;4.70;99.90;;;;;;5047528;28;20059;-58
2022/02/08 02:40:23;;;;;;;10.65;3.60;;;4.70;99.90;;;;;;5049282;28;20025;-59
2022/02/08 02:42:50;;;;;;;13.75;4.70;;;4.70;99.90;;;;;;5047928;28;20114;-58
2022/02/08 02:45:19;;;;;;;14.50;4.47;;;4.70;99.90;;;;;;5054830;28;20075;-58
2022/02/08 02:47:45;;;;;;;17.15;4.88;;;4.80;99.90;;;;;;5064034;28;20028;-57
2022/02/08 02:50:10;;;;;;;13.60;4.78;;;4.90;99.90;;;;;;5067626;28;20020;-57
2022/02/08 02:52:36;;;;;;;17.13;4.38;;;4.80;99.90;;;;;;5068880;28;20040;-57
2022/02/08 02:55:02;;;;;;;15.38;4.80;;;4.80;99.90;;;;;;5069005;28;20082;-57
2022/02/08 02:57:28;;;;;;;20.27;5.97;;;4.80;99.90;;;;;;5068368;28;20072;-57
2022/02/08 03:00:07;;;;;;;16.27;6.68;;;4.80;99.90;;;;;;5068871;28;20051;-57
2022/02/08 03:02:58;;;;;;;14.40;5.80;;;4.80;99.90;;;;;;5069221;28;20398;-57
2022/02/08 03:18:47;;;;;;;17.00;6.53;;;5.10;99.90;;;;;;5048208;28;20556;-59
2022/02/08 03:21:12;;;;;;;15.00;5.93;;;5.20;99.90;;;;;;5048327;28;20048;-58
2022/02/08 03:23:39;;;;;;;17.98;6.82;;;5.20;99.90;;;;;;5048738;28;20025;-58
2022/02/08 03:26:05;;;;;;;38.83;8.45;;;5.10;99.90;;;;;;5056068;28;20104;-58
2022/02/08 03:28:31;;;;;;;24.77;7.72;;;5.20;99.90;;;;;;5061924;28;20027;-58
2022/02/08 03:30:57;;;;;;;22.10;8.23;;;5.20;99.90;;;;;;5068762;28;20032;-57
2022/02/08 03:33:25;;;;;;;23.38;7.28;;;5.20;99.90;;;;;;5068983;28;20050;-59
2022/02/08 03:35:53;;;;;;;34.55;8.52;;;5.30;99.90;;;;;;5068772;28;20032;-58
2022/02/08 03:38:24;;;;;;;21.98;7.80;;;5.40;99.90;;;;;;5066854;28;20056;-58
2022/02/08 03:40:52;;;;;;;23.65;7.10;;;5.40;99.90;;;;;;5068687;28;20261;-57
2022/02/08 03:45:53;;;;;;;16.33;7.30;;;5.40;99.90;;;;;;5058150;28;20248;-58
2022/02/08 03:48:22;;;;;;;17.55;6.65;;;5.40;99.90;;;;;;5026944;28;20064;-57
2022/02/08 03:51:07;;;;;;;20.83;8.27;;;5.40;99.90;;;;;;5028689;28;20104;-57
2022/02/08 03:53:33;;;;;;;23.70;6.95;;;5.30;99.90;;;;;;5028520;28;20022;-58
2022/02/08 03:55:58;;;;;;;21.52;7.95;;;5.30;99.90;;;;;;5028344;28;20049;-58
2022/02/08 03:58:23;;;;;;;29.40;8.27;;;5.30;99.90;;;;;;5036191;28;20024;-59
2022/02/08 04:03:36;;;;;;;35.60;8.65;;;5.20;99.90;;;;;;5072017;28;20031;-58
2022/02/08 04:06:03;;;;;;;21.88;8.55;;;5.10;99.90;;;;;;5072412;28;20017;-57
2022/02/08 04:08:30;;;;;;;31.15;8.88;;;5.00;99.90;;;;;;5070374;28;20024;-59
2022/02/08 04:10:58;;;;;;;24.05;8.23;;;5.00;99.90;;;;;;5040791;28;20491;-59
2022/02/08 04:13:30;;;;;;;22.23;8.18;;;5.00;99.90;;;;;;5040973;28;20107;-57
2022/02/08 04:18:41;;;;;;;24.08;8.60;;;4.90;99.90;;;;;;5031644;28;20032;-58
2022/02/08 04:34:27;;;;;;;35.13;9.75;;;4.60;99.90;;;;;;5072066;28;20056;-59
2022/02/08 04:42:10;;;;;;;22.83;9.48;;;4.50;99.90;;;;;;5072009;28;20028;-59
2022/02/08 04:44:45;;;;;;;26.35;9.27;;;4.50;99.90;;;;;;5068013;28;20390;-59
2022/02/08 04:49:36;;;;;;;20.98;9.60;;;4.50;99.90;;;;;;5071420;28;20417;-60
2022/02/08 04:52:05;;;;;;;31.20;10.55;;;4.40;99.90;;;;;;5071193;28;20043;-60
2022/02/08 04:57:15;;;;;;;25.27;8.50;;;4.40;99.90;;;;;;5071472;28;20028;-59
2022/02/08 05:35:27;;;;;;;22.83;9.15;;;4.40;99.90;;;;;;5070222;28;20583;-58
2022/02/08 05:43:16;;;;;;;25.58;8.63;;;4.40;99.90;;;;;;5051817;28;20060;-57
2022/02/08 05:46:32;;;;;;;23.92;8.20;;;4.50;99.90;;;;;;5049119;28;20052;-58
2022/02/08 05:48:32;;;;;;;23.67;8.65;;;4.50;99.90;;;;;;5057617;28;20036;-58
2022/02/08 05:51:02;;;;;;;20.50;7.88;;;4.50;99.90;;;;;;5071835;28;20052;-58
2022/02/08 05:53:41;;;;;;;34.83;9.63;;;4.50;99.90;;;;;;5071572;28;20044;-58
2022/02/08 05:56:08;;;;;;;23.40;8.90;;;4.50;99.90;;;;;;5052519;28;20040;-58
2022/02/08 05:58:34;;;;;;;21.95;8.45;;;4.60;99.90;;;;;;5041949;28;20025;-58
2022/02/08 06:00:59;;;;;;;22.83;8.65;;;4.50;99.90;;;;;;5046247;28;20029;-58
2022/02/08 06:03:25;;;;;;;15.32;7.88;;;4.60;99.90;;;;;;5050682;28;20092;-57
2022/02/08 06:05:51;;;;;;;19.17;8.73;;;4.60;99.90;;;;;;5049881;28;20021;-57
2022/02/08 06:08:17;;;;;;;22.00;8.30;;;4.60;99.90;;;;;;5049971;28;20156;-58
2022/02/08 06:11:03;;;;;;;36.60;9.85;;;4.70;99.90;;;;;;5051126;28;20527;-57
2022/02/08 06:13:30;;;;;;;19.15;7.88;;;4.70;99.90;;;;;;5035781;28;20694;-57
2022/02/08 06:16:02;;;;;;;22.65;9.82;;;4.70;99.90;;;;;;5033219;28;20021;-58
2022/02/08 06:18:29;;;;;;;24.70;8.85;;;4.70;99.90;;;;;;5042176;28;20029;-58
2022/02/08 06:20:55;;;;;;;23.98;9.70;;;4.80;99.90;;;;;;5038370;28;20038;-58
2022/02/08 06:23:20;;;;;;;21.95;8.40;;;4.90;99.90;;;;;;5037466;28;20497;-58
2022/02/08 06:25:46;;;;;;;24.55;9.32;;;4.90;99.90;;;;;;5044168;28;20462;-58
2022/02/08 06:28:12;;;;;;;19.58;9.38;;;4.80;99.90;;;;;;5041380;28;20030;-58
2022/02/08 06:30:38;;;;;;;21.45;9.30;;;4.80;99.90;;;;;;5042972;28;20036;-58
2022/02/08 06:33:04;;;;;;;27.17;10.80;;;4.90;99.90;;;;;;5055894;28;20016;-58
2022/02/08 06:35:31;;;;;;;24.30;9.68;;;4.80;99.90;;;;;;5059338;28;20394;-58
2022/02/08 06:37:59;;;;;;;20.73;9.85;;;4.90;99.90;;;;;;5045217;28;20029;-58
2022/02/08 06:40:25;;;;;;;24.85;10.57;;;4.90;99.90;;;;;;5045416;28;20021;-58
2022/02/08 06:42:50;;;;;;;18.35;9.38;;;4.90;99.90;;;;;;5044397;28;20029;-59
2022/02/08 06:45:17;;;;;;;20.52;10.60;;;4.90;99.90;;;;;;5032983;28;20424;-59
2022/02/08 06:47:49;;;;;;;26.10;10.60;;;4.90;99.90;;;;;;5045746;28;20021;-59
2022/02/08 06:50:15;;;;;;;23.10;10.63;;;4.90;99.90;;;;;;5046445;28;20024;-58
2022/02/08 06:52:41;;;;;;;21.75;9.82;;;4.90;99.90;;;;;;5052620;28;20040;-58
2022/02/08 06:55:08;;;;;;;23.85;10.48;;;5.00;99.90;;;;;;5049061;28;20025;-58
2022/02/08 06:57:49;;;;;;;18.52;10.13;;;5.00;99.90;;;;;;5046573;28;20482;-58
2022/02/08 07:00:22;;;;;;;21.52;11.02;;;5.10;99.90;;;;;;5032086;28;20048;-58
2022/02/08 07:02:49;;;;;;;15.65;10.45;;;5.10;99.90;;;;;;5048845;28;20027;-58
2022/02/08 07:05:15;;;;;;;20.75;10.65;;;5.10;99.90;;;;;;5048778;28;20029;-58
2022/02/08 07:07:41;;;;;;;18.38;10.10;;;5.10;99.90;;;;;;5046760;28;20559;-58
2022/02/08 07:10:07;;;;;;;23.23;11.18;;;5.10;99.90;;;;;;5047077;28;20041;-58
2022/02/08 07:12:32;;;;;;;23.70;11.38;;;5.20;99.90;;;;;;5046636;28;20466;-58
2022/02/08 07:15:05;;;;;;;20.13;10.38;;;5.20;99.90;;;;;;5040520;28;20040;-58
2022/02/08 07:17:31;;;;;;;20.17;10.95;;;5.20;99.90;;;;;;5058136;28;20021;-58
2022/02/08 07:19:56;;;;;;;20.10;11.50;;;5.20;99.90;;;;;;5053855;28;20040;-58
2022/02/08 07:22:22;;;;;;;22.05;11.15;;;5.20;99.90;;;;;;5035513;28;20124;-58
2022/02/08 07:24:47;;;;;;;17.85;10.15;;;5.20;99.90;;;;;;5028637;28;20026;-58
2022/02/08 07:27:13;;;;;;;20.77;10.45;;;5.30;99.90;;;;;;5047583;28;20017;-58
2022/02/08 07:29:39;;;;;;;17.58;9.52;;;5.30;99.90;;;;;;5050319;28;20033;-58
2022/02/08 07:32:06;;;;;;;18.05;10.18;;;5.30;99.90;;;;;;5048607;28;20031;-58
2022/02/08 07:35:13;;;;;;;14.77;9.98;;;5.40;99.90;;;;;;5051471;28;20021;-58
2022/02/08 07:37:34;;;;;;;16.98;10.30;;;5.40;99.90;;;;;;5053537;28;20028;-58
2022/02/08 07:40:05;;;;;;;17.67;9.60;;;5.50;99.90;;;;;;5068549;28;20413;-59
2022/02/08 07:42:30;;;;;;;16.75;9.27;;;5.50;99.90;;;;;;5054419;28;20025;-58
2022/02/08 07:44:56;;;;;;;16.85;9.45;;;5.50;99.90;;;;;;5040576;28;20103;-58
2022/02/08 07:47:21;;;;;;;18.58;10.60;;;5.50;99.90;;;;;;5053250;28;20027;-58
2022/02/08 07:49:47;;;;;;;18.35;11.30;;;5.50;99.90;;;;;;5048454;28;20029;-58
2022/02/08 07:52:12;;;;;;;19.83;11.73;;;5.60;99.90;;;;;;5047587;28;20029;-58
2022/02/08 07:54:39;;;;;;;21.95;12.23;;;5.70;99.90;;;;;;5048657;28;20336;-58
2022/02/08 07:57:05;;;;;;;26.98;13.75;;;5.90;99.90;;;;;;5048651;28;20394;-58
2022/02/08 07:59:31;;;;;;;26.95;14.60;;;5.90;99.90;;;;;;5036376;28;20029;-58
2022/02/08 08:01:57;;;;;;;29.48;16.60;;;6.10;99.90;;;;;;5028429;28;20037;-59
2022/02/08 08:04:22;;;;;;;27.55;14.68;;;6.20;99.90;;;;;;5027544;28;20033;-58
2022/02/08 08:06:47;;;;;;;23.60;13.98;;;6.30;99.90;;;;;;5047503;28;20109;-59
2022/02/08 08:09:13;;;;;;;25.98;14.95;;;6.40;99.90;;;;;;5062715;28;20025;-59
2022/02/08 08:11:42;;;;;;;37.63;16.35;;;6.50;99.90;;;;;;5048258;28;20072;-59
2022/02/08 08:14:10;;;;;;;25.02;15.35;;;6.50;99.90;;;;;;5053760;28;20082;-59
2022/02/08 08:19:22;;;;;;;35.35;17.90;;;6.60;99.90;;;;;;5044381;28;20386;-58
2022/02/08 08:21:49;;;;;;;30.80;17.70;;;6.70;99.90;;;;;;5051629;28;20060;-58
2022/02/08 08:24:15;;;;;;;31.98;17.85;;;6.70;99.90;;;;;;5047990;28;20170;-58
2022/02/08 08:26:41;;;;;;;34.42;16.77;;;6.70;99.90;;;;;;5048103;28;20508;-58
2022/02/08 08:29:07;;;;;;;33.08;18.25;;;6.80;99.90;;;;;;5045654;28;20029;-59
2022/02/08 08:31:33;;;;;;;32.40;18.83;;;6.90;99.90;;;;;;5047924;28;20082;-58
2022/02/08 08:33:59;;;;;;;33.13;18.85;;;6.90;99.90;;;;;;5048261;28;20397;-58
2022/02/08 08:36:26;;;;;;;33.40;17.92;;;6.90;99.90;;;;;;5047672;28;20188;-59
2022/02/08 08:38:54;;;;;;;36.40;19.42;;;7.00;99.90;;;;;;5040508;28;20036;-59
2022/02/08 08:51:51;;;;;;;40.10;20.13;;;7.20;99.90;;;;;;5051291;28;20021;-59
2022/02/08 08:54:17;;;;;;;32.85;18.77;;;7.20;99.90;;;;;;5039983;28;20021;-59
2022/02/08 08:56:44;;;;;;;38.60;20.85;;;7.30;99.90;;;;;;5031623;28;20025;-58
2022/02/08 08:59:12;;;;;;;38.72;19.65;;;7.30;99.90;;;;;;5032764;28;20074;-59
2022/02/08 09:01:38;;;;;;;36.85;19.17;;;7.30;99.90;;;;;;5043001;28;20044;-59
2022/02/08 09:04:05;;;;;;;40.20;20.58;;;7.30;99.90;;;;;;5029909;28;20021;-59
2022/02/08 09:06:34;;;;;;;36.47;19.58;;;7.40;99.90;;;;;;5031316;28;20069;-59
2022/02/08 09:09:08;;;;;;;33.00;17.90;;;7.40;99.90;;;;;;5036197;28;20021;-58
2022/02/08 09:11:58;;;;;;;32.28;18.80;;;7.50;99.90;;;;;;5033635;28;20033;-58
2022/02/08 09:14:39;;;;;;;34.60;19.27;;;7.50;99.90;;;;;;5048996;28;20036;-59
2022/02/08 09:17:34;;;;;;;36.45;19.65;;;7.60;99.90;;;;;;5059187;28;20075;-59
2022/02/08 09:25:17;;;;;;;32.65;18.70;;;7.70;99.90;;;;;;5031592;28;20112;-59
2022/02/08 09:27:58;;;;;;;28.42;17.33;;;7.70;99.90;;;;;;5049439;28;20251;-60
2022/02/08 09:30:36;;;;;;;;;;;7.70;99.90;;;;;;5041798;28;20029;-60
2022/02/08 09:33:01;;;;;;;34.60;18.45;;;7.70;99.90;;;;;;5038079;28;19905;-59
2022/02/08 09:35:27;;;;;;;32.30;18.40;;;7.80;99.90;;;;;;5039106;28;20036;-59
2022/02/08 09:37:52;;;;;;;40.00;19.88;;;7.90;99.90;;;;;;5039214;28;20055;-58
2022/02/08 09:40:21;;;;;;;36.67;18.33;;;7.80;99.90;;;;;;5039713;28;20080;-59
2022/02/08 09:42:47;;;;;;;32.55;18.35;;;7.90;99.90;;;;;;5038605;28;20468;-59
2022/02/08 09:45:19;;;;;;;35.00;18.80;;;7.90;99.90;;;;;;5043129;28;20024;-59
2022/02/08 09:50:30;;;;;;;35.00;20.92;;;8.00;99.90;;;;;;5040644;28;20029;-59
2022/02/08 09:53:00;;;;;;;34.17;18.38;;;8.00;99.90;;;;;;5038497;28;20238;-58
2022/02/08 09:55:30;;;;;;;37.33;19.50;;;8.10;99.90;;;;;;5036883;28;20033;-59
2022/02/08 09:57:56;;;;;;;;;;;8.20;99.90;;;;;;5040453;28;20129;-59
2022/02/08 10:00:23;;;;;;;31.73;16.52;;;8.20;99.90;;;;;;5036914;28;20287;-59
2022/02/08 10:02:49;;;;;;;32.28;16.92;;;8.20;99.90;;;;;;5038924;28;20021;-59
2022/02/08 10:05:14;;;;;;;29.52;18.20;;;8.30;99.90;;;;;;5036696;28;20160;-59
2022/02/08 10:07:40;;;;;;;34.25;19.20;;;8.30;99.90;;;;;;5038411;28;20033;-59
2022/02/08 10:10:11;;;;;;;33.28;18.40;;;8.30;99.90;;;;;;5038885;28;20079;-59
2022/02/08 10:13:02;;;;;;;36.30;18.05;;;8.50;99.90;;;;;;5038849;28;20032;-59
2022/02/08 10:22:03;;;;;;;33.95;17.40;;;8.60;99.90;;;;;;5045481;28;20078;-60
2022/02/08 10:24:08;;;;;;;32.95;18.58;;;8.60;99.90;;;;;;5033016;28;20041;-60
2022/02/08 10:40:09;;;;;;;33.70;17.52;;;8.90;99.90;;;;;;5043859;28;20036;-59
2022/02/08 10:42:36;;;;;;;34.08;16.48;;;9.00;99.90;;;;;;5035774;28;20025;-58
2022/02/08 10:45:03;;;;;;;31.90;17.27;;;9.00;99.90;;;;;;5040150;28;20020;-59
2022/02/08 10:47:34;;;;;;;26.38;16.70;;;9.10;99.90;;;;;;5043796;28;20021;-59
2022/02/08 10:50:01;;;;;;;33.13;18.10;;;9.20;99.90;;;;;;5037479;28;20028;-58
2022/02/08 10:52:28;;;;;;;29.20;16.25;;;9.20;99.90;;;;;;5036196;28;20254;-59
2022/02/08 10:54:56;;;;;;;34.05;16.73;;;9.20;99.90;;;;;;5039318;28;20048;-59
2022/02/08 10:57:31;;;;;;;34.17;17.15;;;9.20;99.90;;;;;;5039882;28;21008;-58
2022/02/08 11:00:02;;;;;;;24.25;15.57;;;9.30;99.90;;;;;;5043384;28;20394;-59
2022/02/08 11:02:36;;;;;;;;;;;9.30;99.90;;;;;;5036295;28;20028;-59
2022/02/08 11:05:11;;;;;;;26.58;15.70;;;9.40;99.90;;;;;;5038118;28;20001;-59
2022/02/08 11:10:34;;;;;;;26.70;16.30;;;9.50;99.90;;;;;;5039215;28;20124;-59
2022/02/08 11:15:44;;;;;;;30.60;16.23;;;9.40;99.90;;;;;;5042697;28;20762;-59
2022/02/08 11:18:22;;;;;;;34.47;18.95;;;9.40;99.90;;;;;;5044446;28;20489;-59
2022/02/08 11:21:04;;;;;;;35.63;17.38;;;9.20;99.90;;;;;;5035603;28;20044;-59
2022/02/08 11:23:35;;;;;;;25.58;16.92;;;9.30;99.90;;;;;;5039394;28;20017;-58
2022/02/08 11:26:02;;;;;;;36.20;17.50;;;9.20;99.90;;;;;;5038293;28;20049;-58
2022/02/08 11:28:37;;;;;;;31.58;17.83;;;9.10;99.90;;;;;;5038641;28;20032;-58
2022/02/08 11:31:24;;;;;;;34.80;18.58;;;9.10;99.90;;;;;;5039105;28;20121;-58
2022/02/08 11:42:57;;;;;;;38.05;18.48;;;9.00;99.90;;;;;;5039897;28;20040;-59
2022/02/08 11:53:15;;;;;;;27.80;16.70;;;9.10;99.90;;;;;;5037383;28;20033;-59
2022/02/08 11:58:43;;;;;;;26.58;15.70;;;9.20;99.90;;;;;;5037175;28;20068;-59
2022/02/08 12:01:18;;;;;;;29.30;16.02;;;9.20;99.90;;;;;;5038271;28;20025;-59
2022/02/08 12:06:31;;;;;;;28.70;15.45;;;9.30;99.90;;;;;;5036602;28;20063;-59
2022/02/08 12:09:06;;;;;;;24.45;14.23;;;9.30;99.90;;;;;;5037003;28;20466;-59
2022/02/08 12:28:47;;;;;;;18.33;12.32;;;9.50;99.90;;;;;;5035337;28;20103;-59
2022/02/08 12:31:31;;;;;;;20.55;10.85;;;9.50;99.90;;;;;;5035313;28;20390;-60
2022/02/08 12:39:34;;;;;;;21.00;11.10;;;9.50;99.90;;;;;;5041105;28;20132;-59
2022/02/08 12:51:35;;;;;;;15.25;11.80;;;9.70;99.90;;;;;;5016417;28;20558;-59
2022/02/08 12:53:46;;;;;;;21.25;10.93;;;9.60;99.90;;;;;;5034387;28;20040;-59
2022/02/08 12:56:21;;;;;;;19.73;12.43;;;9.50;99.90;;;;;;5038354;28;20029;-59
2022/02/08 13:02:17;;;;;;;18.80;11.02;;;9.50;99.90;;;;;;5040497;28;20036;-59
2022/02/08 13:14:36;;;;;;;20.17;11.45;;;9.60;99.90;;;;;;5041215;28;20146;-59
2022/02/08 13:17:35;;;;;;;22.08;12.25;;;9.50;99.90;;;;;;5043339;28;20037;-59
2022/02/08 13:32:05;;;;;;;21.35;11.98;;;9.50;99.90;;;;;;5040440;28;20048;-59
2022/02/08 14:07:45;;;;;;;17.20;10.10;;;9.30;99.90;;;;;;5040437;28;20049;-59
2022/02/08 14:10:27;;;;;;;16.48;10.18;;;9.30;99.90;;;;;;5038336;28;20029;-59
2022/02/08 14:13:33;;;;;;;18.92;9.30;;;9.30;99.90;;;;;;5041789;28;20036;-60
2022/02/08 14:16:12;;;;;;;20.98;10.57;;;9.40;99.90;;;;;;5045918;28;20468;-60
2022/02/08 14:18:51;;;;;;;21.05;9.82;;;9.30;99.90;;;;;;5042665;28;20120;-59
2022/02/08 14:31:58;;;;;;;22.42;11.90;;;9.10;99.90;;;;;;5025831;28;20037;-59
2022/02/08 14:59:57;;;;;;;27.15;14.23;;;8.90;99.90;;;;;;5039025;28;20041;-59
2022/02/08 15:09:56;;;;;;;26.98;14.13;;;8.90;99.90;;;;;;5035346;28;20072;-60
2022/02/08 15:12:25;;;;;;;25.83;14.07;;;8.90;99.90;;;;;;5035962;28;20336;-60
2022/02/08 15:15:02;;;;;;;25.90;14.50;;;8.90;99.90;;;;;;5041389;28;20665;-59
2022/02/08 15:17:28;;;;;;;27.63;14.82;;;8.80;99.90;;;;;;5040110;28;20049;-59
2022/02/08 15:19:55;;;;;;;28.05;14.90;;;8.90;99.90;;;;;;5038187;28;20029;-59
2022/02/08 15:22:20;;;;;;;24.25;14.55;;;8.90;99.90;;;;;;5036822;28;20028;-59
2022/02/08 15:24:46;;;;;;;28.60;14.95;;;8.90;99.90;;;;;;5038545;28;20033;-59
2022/02/08 15:27:14;;;;;;;27.13;15.18;;;8.90;99.90;;;;;;5040541;28;20658;-59
2022/02/08 15:29:40;;;;;;;29.25;15.00;;;8.90;99.90;;;;;;5038931;28;20378;-60
2022/02/08 15:32:12;;;;;;;31.85;16.10;;;8.90;99.90;;;;;;5040827;28;20021;-59
2022/02/08 15:34:38;;;;;;;24.17;14.00;;;8.90;99.90;;;;;;5038251;28;20041;-59
2022/02/08 15:37:03;;;;;;;26.92;16.13;;;8.90;99.90;;;;;;5037792;28;20056;-59
2022/02/08 15:39:29;;;;;;;26.15;16.45;;;8.90;99.90;;;;;;5037456;28;20021;-59
2022/02/08 15:41:55;;;;;;;34.28;16.75;;;8.90;99.90;;;;;;5035918;28;20030;-59
2022/02/08 15:44:23;;;;;;;27.13;16.90;;;8.80;99.90;;;;;;5035293;28;20017;-59
2022/02/08 15:46:51;;;;;;;36.25;16.33;;;8.90;99.90;;;;;;5052544;28;20021;-59
2022/02/08 15:49:17;;;;;;;36.33;18.05;;;8.90;99.90;;;;;;5065307;28;20021;-59
2022/02/08 15:51:46;;;;;;;38.40;19.65;;;8.80;99.90;;;;;;5067807;28;20029;-59
2022/02/08 15:54:21;;;;;;;34.55;20.15;;;8.90;99.90;;;;;;5067715;28;20101;-60
2022/02/08 16:07:55;;;;;;;40.35;24.23;;;8.80;99.90;;;;;;5070954;28;20044;-59
2022/02/08 16:10:29;;;;;;;42.92;24.95;;;8.80;99.90;;;;;;5071598;28;20020;-59
2022/02/08 16:13:18;;;;;;;43.22;22.85;;;8.80;99.90;;;;;;5071460;28;20111;-59
2022/02/08 16:16:10;;;;;;;47.30;26.60;;;8.80;99.90;;;;;;5065875;28;20021;-59
2022/02/08 16:18:48;;;;;;;47.40;26.25;;;8.80;99.90;;;;;;5059219;28;20052;-60
2022/02/08 16:26:31;;;;;;;45.97;28.67;;;8.70;99.90;;;;;;5071116;28;20021;-60
2022/02/08 16:51:39;;;;;;;53.95;31.60;;;8.60;99.90;;;;;;5046966;28;20032;-59
2022/02/08 16:53:49;;;;;;;55.85;33.47;;;8.70;99.90;;;;;;5048302;28;20392;-59
2022/02/08 16:56:25;;;;;;;55.63;31.65;;;8.70;99.90;;;;;;5048045;28;20021;-59
2022/02/08 16:58:53;;;;;;;53.50;30.95;;;8.60;99.90;;;;;;5045420;28;20044;-59
2022/02/08 17:01:24;;;;;;;58.15;33.17;;;8.60;99.90;;;;;;5047543;28;20391;-59
2022/02/08 17:03:51;;;;;;;51.10;31.08;;;8.60;99.90;;;;;;5048290;28;20029;-59
2022/02/08 17:06:27;;;;;;;51.38;30.95;;;8.60;99.90;;;;;;5036621;28;20485;-59
2022/02/08 17:09:02;;;;;;;50.08;31.17;;;8.70;99.90;;;;;;5046688;28;20021;-59
2022/02/08 17:14:45;;;;;;;54.28;31.55;;;8.60;99.90;;;;;;5046915;28;20064;-59
2022/02/08 17:34:26;;;;;;;50.88;31.80;;;8.70;99.90;;;;;;5036205;28;20041;-59
2022/02/08 17:49:39;;;;;;;61.95;32.88;;;8.60;99.90;;;;;;5068705;28;20025;-51
2022/02/08 17:52:05;;;;;;;56.90;33.23;;;8.60;99.90;;;;;;5031067;28;1089373;-54
2022/02/08 17:54:31;;;;;;;59.90;33.65;;;8.60;99.90;;;;;;5069939;28;20035;-53
2022/02/08 17:56:59;;;;;;;56.08;33.00;;;8.60;99.90;;;;;;5070168;28;20107;-55
2022/02/08 17:59:25;;;;;;;59.75;32.42;;;8.60;99.90;;;;;;5062537;28;20095;-54
2022/02/08 18:01:51;;;;;;;52.40;32.00;;;8.60;99.90;;;;;;5060185;28;20171;-55
2022/02/08 18:04:18;;;;;;;56.67;31.98;;;8.60;99.90;;;;;;5070766;28;20102;-55
2022/02/08 18:06:43;;;;;;;65.22;31.70;;;8.60;99.90;;;;;;5069720;28;20025;-58
2022/02/08 18:09:09;;;;;;;52.83;30.38;;;8.70;99.90;;;;;;5070201;28;20024;-58
2022/02/08 18:11:40;;;;;;;51.28;29.05;;;8.70;99.90;;;;;;5070727;28;20115;-57
2022/02/08 18:14:09;;;;;;;55.53;30.60;;;8.70;99.90;;;;;;5070740;28;20074;-57
2022/02/08 18:16:36;;;;;;;48.25;29.25;;;8.70;99.90;;;;;;5057660;28;20371;-57
2022/02/08 18:19:15;;;;;;;54.83;29.63;;;8.70;99.90;;;;;;5050052;28;20036;-60
2022/02/08 18:21:52;;;;;;;51.20;28.80;;;8.70;99.90;;;;;;5049395;28;20029;-59
2022/02/08 18:24:31;;;;;;;49.10;29.02;;;8.70;99.90;;;;;;5050558;28;20289;-59
2022/02/08 19:07:45;;;;;;;56.92;30.08;;;8.70;99.90;;;;;;5033794;28;20025;-61
2022/02/08 19:20:54;;;;;;;55.20;29.70;;;8.70;99.90;;;;;;5034333;28;20032;-60
2022/02/08 19:23:20;;;;;;;54.53;30.70;;;8.70;99.90;;;;;;5040386;28;20013;-60
2022/02/08 19:25:45;;;;;;;54.75;30.00;;;8.60;99.90;;;;;;5036723;28;20372;-60
2022/02/08 19:28:11;;;;;;;54.72;31.17;;;8.60;99.90;;;;;;5054583;28;20029;-61
2022/02/08 19:30:36;;;;;;;58.65;32.70;;;8.60;99.90;;;;;;5058346;28;20037;-60
2022/02/08 19:33:02;;;;;;;60.80;31.48;;;8.60;99.90;;;;;;5056295;28;20643;-60
2022/02/08 19:35:28;;;;;;;56.63;30.45;;;8.60;99.90;;;;;;5068099;28;20036;-59
2022/02/08 19:37:53;;;;;;;57.38;31.27;;;8.60;99.90;;;;;;5047833;28;20095;-60
2022/02/08 19:40:19;;;;;;;55.78;30.05;;;8.60;99.90;;;;;;5069040;28;20047;-59
2022/02/08 19:42:45;;;;;;;53.90;29.88;;;8.60;99.90;;;;;;5069543;28;20096;-59
2022/02/08 19:45:20;;;;;;;56.20;30.00;;;8.60;99.90;;;;;;5066579;28;20443;-59
2022/02/08 19:47:46;;;;;;;55.35;28.67;;;8.60;99.90;;;;;;5060482;28;20021;-59
2022/02/08 19:50:12;;;;;;;47.50;27.20;;;8.60;99.90;;;;;;5069073;28;20111;-58
2022/02/08 19:52:39;;;;;;;53.83;29.10;;;8.60;99.90;;;;;;5067970;28;20052;-58
2022/02/08 19:57:41;;;;;;;49.92;28.70;;;8.60;99.90;;;;;;5068858;28;20047;-58
2022/02/08 20:00:10;;;;;;;51.38;28.02;;;8.60;99.90;;;;;;5067555;28;20020;-59
2022/02/08 20:02:43;;;;;;;50.50;27.90;;;8.60;99.90;;;;;;5069281;28;20033;-58